DLH459X GVAC-EDDM
Flight info
| Callsign | DLH459X |
|---|---|
| Flight time | N/A |
| Altitude | 29000 |
| Route | PINPO2A PINPO UW11 GUNET N857 ETIBA/N0465F310 N857 BIPET/N0461F290 DCT CABOJ/N0459F300 DCT LAY/N0458F320 L660 SOLNA UA600 ADM UG850 MAK UM372 FES/N0452F330 UA411 MOS/N0451F340 UA6 LABRO DCT CDP DCT CHELY DCT LUMAS DCT UNANA DCT STP DCT RAPED DCT PIGOS DCT EKSID DCT NOSTA DCT EGHIN DCT KOXUD DCT GIBLO DCT TAGIP DCT GUNGO DCT IVKAL T102 NINUR T101 BETOS BETOS1B |
| Aircraft | A321/M-SDE3FGHIRWY/LB1 |
Departure
| Time | 2026-05-07 12:18 |
|---|---|
| Airport | Amílcar Cabral International Airport (GVAC) |
Arrival
| Time | N/A |
|---|---|
| Airport | Munich Airport (EDDM) |
| Time | Latitude | Longitude | Altitude | Speed | Heading |
|---|---|---|---|---|---|
| 2026-05-07 11:47 | 16.73366 | -22.94495 | 181 ft | 0 kts | 89° |
| 2026-05-07 12:05 | 16.73366 | -22.94499 | 181 ft | 3 kts | 89° |
| 2026-05-07 12:06 | 16.73367 | -22.94527 | 181 ft | 4 kts | 94° |
| 2026-05-07 12:06 | 16.73370 | -22.94555 | 181 ft | 4 kts | 102° |
| 2026-05-07 12:06 | 16.73378 | -22.94581 | 181 ft | 4 kts | 123° |
| 2026-05-07 12:06 | 16.73393 | -22.94595 | 181 ft | 2 kts | 178° |
| 2026-05-07 12:07 | 16.73394 | -22.94596 | 181 ft | 0 kts | 179° |
| 2026-05-07 12:09 | 16.73351 | -22.94595 | 181 ft | 13 kts | 179° |
| 2026-05-07 12:09 | 16.73253 | -22.94593 | 181 ft | 14 kts | 179° |
| 2026-05-07 12:09 | 16.73155 | -22.94591 | 177 ft | 14 kts | 179° |
| 2026-05-07 12:09 | 16.73072 | -22.94627 | 176 ft | 13 kts | 238° |
| 2026-05-07 12:10 | 16.73011 | -22.94692 | 182 ft | 12 kts | 186° |
| 2026-05-07 12:10 | 16.72924 | -22.94690 | 182 ft | 13 kts | 179° |
| 2026-05-07 12:10 | 16.72836 | -22.94688 | 182 ft | 13 kts | 179° |
| 2026-05-07 12:10 | 16.72749 | -22.94688 | 182 ft | 12 kts | 179° |
| 2026-05-07 12:11 | 16.72663 | -22.94687 | 182 ft | 12 kts | 179° |
| 2026-05-07 12:11 | 16.72577 | -22.94686 | 182 ft | 12 kts | 179° |
| 2026-05-07 12:11 | 16.72491 | -22.94686 | 182 ft | 12 kts | 179° |
| 2026-05-07 12:11 | 16.72422 | -22.94702 | 182 ft | 10 kts | 223° |
| 2026-05-07 12:12 | 16.72408 | -22.94769 | 182 ft | 9 kts | 269° |
| 2026-05-07 12:12 | 16.72408 | -22.94785 | 182 ft | 0 kts | 269° |
| 2026-05-07 12:15 | 16.72408 | -22.94786 | 182 ft | 1 kts | 269° |
| 2026-05-07 12:16 | 16.72408 | -22.94810 | 182 ft | 7 kts | 269° |
| 2026-05-07 12:16 | 16.72407 | -22.94866 | 182 ft | 8 kts | 274° |
| 2026-05-07 12:16 | 16.72442 | -22.94887 | 182 ft | 6 kts | 356° |
| 2026-05-07 12:16 | 16.72468 | -22.94887 | 182 ft | 0 kts | 360° |
| 2026-05-07 12:17 | 16.72469 | -22.94887 | 182 ft | 0 kts | 360° |
| 2026-05-07 12:17 | 16.72472 | -22.94887 | 182 ft | 1 kts | 360° |
| 2026-05-07 12:17 | 16.72578 | -22.94887 | 182 ft | 43 kts | 360° |
| 2026-05-07 12:17 | 16.73106 | -22.94891 | 183 ft | 107 kts | 360° |
| 2026-05-07 12:18 | 16.74038 | -22.94898 | 179 ft | 159 kts | 359° |
| 2026-05-07 12:18 | 16.75239 | -22.94913 | 580 ft | 174 kts | 1° |
| 2026-05-07 12:18 | 16.76424 | -22.94923 | 1337 ft | 172 kts | 3° |
| 2026-05-07 12:18 | 16.77637 | -22.94906 | 1732 ft | 181 kts | 3° |
| 2026-05-07 12:19 | 16.78978 | -22.94883 | 1884 ft | 199 kts | 2° |
| 2026-05-07 12:19 | 16.80408 | -22.94860 | 2001 ft | 218 kts | 2° |
| 2026-05-07 12:19 | 16.81984 | -22.94840 | 2205 ft | 233 kts | 2° |
| 2026-05-07 12:19 | 16.83668 | -22.94821 | 2464 ft | 249 kts | 3° |
| 2026-05-07 12:20 | 16.85370 | -22.94481 | 2980 ft | 252 kts | 22° |
| 2026-05-07 12:20 | 16.86854 | -22.93500 | 3539 ft | 256 kts | 43° |
| 2026-05-07 12:20 | 16.87906 | -22.91986 | 4057 ft | 263 kts | 64° |
| 2026-05-07 12:20 | 16.88402 | -22.90128 | 4536 ft | 270 kts | 77° |
| 2026-05-07 12:21 | 16.88775 | -22.88193 | 5025 ft | 274 kts | 77° |
| 2026-05-07 12:21 | 16.89158 | -22.86227 | 5487 ft | 279 kts | 77° |
| 2026-05-07 12:21 | 16.89547 | -22.84228 | 5919 ft | 283 kts | 77° |
| 2026-05-07 12:21 | 16.89946 | -22.82193 | 6353 ft | 288 kts | 77° |
| 2026-05-07 12:22 | 16.90352 | -22.80129 | 6802 ft | 292 kts | 77° |
| 2026-05-07 12:22 | 16.90764 | -22.78043 | 7241 ft | 295 kts | 77° |
| 2026-05-07 12:22 | 16.91423 | -22.76018 | 7723 ft | 295 kts | 60° |
| 2026-05-07 12:22 | 16.92588 | -22.74262 | 8209 ft | 295 kts | 45° |
| 2026-05-07 12:23 | 16.94013 | -22.72699 | 8602 ft | 299 kts | 44° |
| 2026-05-07 12:23 | 16.95460 | -22.71116 | 8968 ft | 303 kts | 44° |
| 2026-05-07 12:23 | 16.96922 | -22.69511 | 9315 ft | 307 kts | 44° |
| 2026-05-07 12:23 | 16.98397 | -22.67885 | 9692 ft | 310 kts | 45° |
| 2026-05-07 12:24 | 16.99885 | -22.66245 | 10073 ft | 313 kts | 45° |
| 2026-05-07 12:24 | 17.01383 | -22.64595 | 10261 ft | 323 kts | 45° |
| 2026-05-07 12:24 | 17.02961 | -22.62859 | 10391 ft | 335 kts | 45° |
| 2026-05-07 12:24 | 17.04595 | -22.61058 | 10521 ft | 347 kts | 45° |
| 2026-05-07 12:25 | 17.06281 | -22.59196 | 10649 ft | 358 kts | 45° |
| 2026-05-07 12:25 | 17.08019 | -22.57276 | 10816 ft | 368 kts | 45° |
| 2026-05-07 12:25 | 17.09806 | -22.55301 | 10946 ft | 379 kts | 45° |
| 2026-05-07 12:25 | 17.11641 | -22.53273 | 11076 ft | 389 kts | 45° |
| 2026-05-07 12:26 | 17.13523 | -22.51188 | 11227 ft | 398 kts | 46° |
| 2026-05-07 12:26 | 17.15432 | -22.49070 | 11528 ft | 402 kts | 46° |
| 2026-05-07 12:26 | 17.17359 | -22.46932 | 11848 ft | 406 kts | 46° |
| 2026-05-07 12:26 | 17.19304 | -22.44779 | 12201 ft | 409 kts | 46° |
| 2026-05-07 12:27 | 17.21262 | -22.42612 | 12561 ft | 410 kts | 46° |
| 2026-05-07 12:27 | 17.23223 | -22.40444 | 12931 ft | 412 kts | 46° |
| 2026-05-07 12:27 | 17.25193 | -22.38263 | 13296 ft | 413 kts | 46° |
| 2026-05-07 12:27 | 17.27168 | -22.36070 | 13675 ft | 414 kts | 46° |
| 2026-05-07 12:28 | 17.29146 | -22.33873 | 14055 ft | 416 kts | 46° |
| 2026-05-07 12:28 | 17.31133 | -22.31668 | 14441 ft | 417 kts | 46° |
| 2026-05-07 12:28 | 17.33125 | -22.29457 | 14821 ft | 417 kts | 46° |
| 2026-05-07 12:28 | 17.35119 | -22.27242 | 15190 ft | 418 kts | 46° |
| 2026-05-07 12:29 | 17.37117 | -22.25022 | 15560 ft | 419 kts | 45° |
| 2026-05-07 12:29 | 17.39120 | -22.22799 | 15914 ft | 420 kts | 46° |
| 2026-05-07 12:29 | 17.41130 | -22.20570 | 16244 ft | 421 kts | 45° |
| 2026-05-07 12:29 | 17.43146 | -22.18334 | 16576 ft | 423 kts | 45° |
| 2026-05-07 12:30 | 17.45167 | -22.16090 | 16920 ft | 423 kts | 45° |
| 2026-05-07 12:30 | 17.47190 | -22.13843 | 17256 ft | 424 kts | 45° |
| 2026-05-07 12:30 | 17.49186 | -22.11623 | 17569 ft | 425 kts | 45° |
| 2026-05-07 12:30 | 17.51213 | -22.09363 | 17885 ft | 425 kts | 46° |
| 2026-05-07 12:31 | 17.53238 | -22.07101 | 18215 ft | 426 kts | 45° |
| 2026-05-07 12:31 | 17.55263 | -22.04837 | 18500 ft | 427 kts | 45° |
| 2026-05-07 12:31 | 17.57302 | -22.02561 | 18771 ft | 429 kts | 45° |
| 2026-05-07 12:31 | 17.59349 | -22.00282 | 19037 ft | 430 kts | 45° |
| 2026-05-07 12:32 | 17.61404 | -21.97996 | 19293 ft | 432 kts | 45° |
| 2026-05-07 12:32 | 17.63470 | -21.95695 | 19540 ft | 434 kts | 45° |
| 2026-05-07 12:32 | 17.65541 | -21.93385 | 19788 ft | 436 kts | 45° |
| 2026-05-07 12:32 | 17.67623 | -21.91063 | 20038 ft | 437 kts | 45° |
| 2026-05-07 12:33 | 17.71808 | -21.86402 | 20526 ft | 440 kts | 45° |
| 2026-05-07 12:33 | 17.73909 | -21.84058 | 20756 ft | 442 kts | 45° |
| 2026-05-07 12:33 | 17.76021 | -21.81700 | 20987 ft | 443 kts | 45° |
| 2026-05-07 12:34 | 17.78134 | -21.79343 | 21215 ft | 445 kts | 45° |
| 2026-05-07 12:34 | 17.80259 | -21.76973 | 21432 ft | 446 kts | 45° |
| 2026-05-07 12:34 | 17.82385 | -21.74600 | 21650 ft | 447 kts | 45° |
| 2026-05-07 12:34 | 17.84517 | -21.72215 | 21851 ft | 449 kts | 45° |
| 2026-05-07 12:35 | 17.86656 | -21.69819 | 22066 ft | 450 kts | 45° |
| 2026-05-07 12:35 | 17.88771 | -21.67451 | 22268 ft | 451 kts | 45° |
| 2026-05-07 12:35 | 17.90924 | -21.65045 | 22459 ft | 453 kts | 45° |
| 2026-05-07 12:35 | 17.93086 | -21.62633 | 22668 ft | 454 kts | 45° |
| 2026-05-07 12:36 | 17.95250 | -21.60213 | 22848 ft | 456 kts | 45° |
| 2026-05-07 12:36 | 17.97423 | -21.57778 | 23039 ft | 457 kts | 45° |
| 2026-05-07 12:36 | 17.99600 | -21.55341 | 23233 ft | 458 kts | 45° |
| 2026-05-07 12:36 | 18.01786 | -21.52893 | 23427 ft | 460 kts | 45° |
| 2026-05-07 12:37 | 18.03979 | -21.50434 | 23615 ft | 461 kts | 45° |
| 2026-05-07 12:37 | 18.06173 | -21.47974 | 23796 ft | 462 kts | 45° |
| 2026-05-07 12:37 | 18.08374 | -21.45501 | 23981 ft | 464 kts | 45° |
| 2026-05-07 12:37 | 18.10580 | -21.43019 | 24169 ft | 465 kts | 45° |
| 2026-05-07 12:38 | 18.12798 | -21.40530 | 24354 ft | 467 kts | 45° |
| 2026-05-07 12:38 | 18.15023 | -21.38032 | 24527 ft | 468 kts | 45° |
| 2026-05-07 12:38 | 18.17252 | -21.35530 | 24700 ft | 470 kts | 45° |
| 2026-05-07 12:38 | 18.19491 | -21.33015 | 24868 ft | 471 kts | 45° |
| 2026-05-07 12:39 | 18.21736 | -21.30495 | 25039 ft | 473 kts | 45° |
| 2026-05-07 12:39 | 18.23986 | -21.27964 | 25227 ft | 475 kts | 45° |
| 2026-05-07 12:39 | 18.25484 | -21.26279 | 25345 ft | 476 kts | 45° |
| 2026-05-07 12:39 | 18.28513 | -21.22862 | 25569 ft | 478 kts | 45° |
| 2026-05-07 12:40 | 18.30013 | -21.21169 | 25679 ft | 479 kts | 45° |
| 2026-05-07 12:40 | 18.32290 | -21.18602 | 25852 ft | 480 kts | 45° |
| 2026-05-07 12:40 | 18.34574 | -21.16033 | 25999 ft | 482 kts | 45° |
| 2026-05-07 12:40 | 18.36868 | -21.13448 | 26146 ft | 483 kts | 45° |
| 2026-05-07 12:41 | 18.39163 | -21.10858 | 26299 ft | 484 kts | 45° |
| 2026-05-07 12:41 | 18.41463 | -21.08262 | 26440 ft | 486 kts | 45° |
| 2026-05-07 12:41 | 18.43776 | -21.05653 | 26567 ft | 487 kts | 45° |
| 2026-05-07 12:41 | 18.46093 | -21.03037 | 26706 ft | 488 kts | 45° |
| 2026-05-07 12:42 | 18.48408 | -21.00413 | 26841 ft | 489 kts | 45° |
| 2026-05-07 12:42 | 18.50725 | -20.97787 | 26968 ft | 490 kts | 45° |
| 2026-05-07 12:42 | 18.53052 | -20.95155 | 27085 ft | 491 kts | 45° |
| 2026-05-07 12:42 | 18.55377 | -20.92524 | 27246 ft | 491 kts | 45° |
| 2026-05-07 12:43 | 18.57707 | -20.89891 | 27402 ft | 491 kts | 45° |
| 2026-05-07 12:43 | 18.60039 | -20.87257 | 27568 ft | 491 kts | 45° |
| 2026-05-07 12:43 | 18.62370 | -20.84618 | 27726 ft | 492 kts | 45° |
| 2026-05-07 12:43 | 18.64668 | -20.82010 | 27919 ft | 491 kts | 45° |
| 2026-05-07 12:44 | 18.66996 | -20.79360 | 28087 ft | 491 kts | 45° |
| 2026-05-07 12:44 | 18.69323 | -20.76718 | 28250 ft | 491 kts | 45° |
| 2026-05-07 12:44 | 18.71651 | -20.74076 | 28435 ft | 492 kts | 45° |
| 2026-05-07 12:44 | 18.73975 | -20.71435 | 28620 ft | 491 kts | 45° |
| 2026-05-07 12:45 | 18.76300 | -20.68796 | 28798 ft | 491 kts | 45° |
| 2026-05-07 12:45 | 18.78626 | -20.66155 | 28972 ft | 491 kts | 45° |
| 2026-05-07 12:45 | 18.83268 | -20.60876 | 28998 ft | 491 kts | 45° |
| 2026-05-07 12:46 | 18.87910 | -20.55584 | 29000 ft | 491 kts | 45° |
| 2026-05-07 12:46 | 18.92557 | -20.50286 | 28997 ft | 491 kts | 45° |
| 2026-05-07 12:47 | 18.97205 | -20.44998 | 28998 ft | 491 kts | 45° |
| 2026-05-07 12:47 | 19.01846 | -20.39700 | 29000 ft | 491 kts | 45° |
| 2026-05-07 12:48 | 19.06489 | -20.34403 | 29000 ft | 491 kts | 45° |
| 2026-05-07 12:48 | 19.11123 | -20.29104 | 28998 ft | 491 kts | 45° |
| 2026-05-07 12:49 | 19.15756 | -20.23794 | 28998 ft | 491 kts | 45° |
| 2026-05-07 12:49 | 19.20393 | -20.18485 | 28999 ft | 491 kts | 45° |
| 2026-05-07 12:50 | 19.25000 | -20.13215 | 28998 ft | 491 kts | 45° |
| 2026-05-07 12:50 | 19.29631 | -20.07891 | 28998 ft | 491 kts | 45° |
| 2026-05-07 12:51 | 19.34260 | -20.02572 | 28998 ft | 491 kts | 45° |
| 2026-05-07 12:51 | 19.38895 | -19.97253 | 28999 ft | 491 kts | 45° |
| 2026-05-07 12:52 | 19.43532 | -19.91912 | 28991 ft | 492 kts | 45° |
| 2026-05-07 12:52 | 19.48135 | -19.86597 | 28986 ft | 492 kts | 45° |
| 2026-05-07 12:53 | 19.52768 | -19.81253 | 28988 ft | 492 kts | 45° |
| 2026-05-07 12:53 | 19.57406 | -19.75915 | 28991 ft | 491 kts | 43° |
| 2026-05-07 12:54 | 19.62764 | -19.71537 | 28987 ft | 484 kts | 26° |
| 2026-05-07 12:54 | 19.68644 | -19.68043 | 28989 ft | 485 kts | 26° |
| 2026-05-07 12:55 | 19.74521 | -19.64523 | 28987 ft | 485 kts | 26° |
| 2026-05-07 12:55 | 19.80393 | -19.60990 | 28988 ft | 484 kts | 26° |
| 2026-05-07 12:56 | 19.86265 | -19.57467 | 28988 ft | 484 kts | 26° |
| 2026-05-07 12:56 | 19.92095 | -19.53971 | 28988 ft | 485 kts | 26° |
| 2026-05-07 12:57 | 19.97963 | -19.50438 | 28989 ft | 485 kts | 26° |
| 2026-05-07 12:57 | 20.03825 | -19.46906 | 28991 ft | 484 kts | 26° |
| 2026-05-07 12:58 | 20.09679 | -19.43390 | 28993 ft | 483 kts | 26° |
| 2026-05-07 12:58 | 20.15528 | -19.39866 | 28991 ft | 483 kts | 26° |
| 2026-05-07 12:59 | 20.21381 | -19.36331 | 28993 ft | 483 kts | 26° |
| 2026-05-07 12:59 | 20.27226 | -19.32799 | 28987 ft | 483 kts | 26° |
| 2026-05-07 13:00 | 20.33080 | -19.29265 | 28987 ft | 483 kts | 26° |
| 2026-05-07 13:00 | 20.38924 | -19.25735 | 28990 ft | 482 kts | 26° |
| 2026-05-07 13:01 | 20.44759 | -19.22195 | 28986 ft | 483 kts | 26° |
| 2026-05-07 13:01 | 20.50597 | -19.18652 | 28988 ft | 482 kts | 26° |
| 2026-05-07 13:02 | 20.56442 | -19.15116 | 28992 ft | 482 kts | 26° |
| 2026-05-07 13:02 | 20.62283 | -19.11582 | 28989 ft | 482 kts | 26° |
| 2026-05-07 13:03 | 20.68115 | -19.08045 | 28987 ft | 482 kts | 26° |
| 2026-05-07 13:03 | 20.73942 | -19.04497 | 28997 ft | 482 kts | 26° |
| 2026-05-07 13:04 | 20.79763 | -19.00943 | 28999 ft | 482 kts | 26° |
| 2026-05-07 13:04 | 20.85585 | -18.97393 | 29001 ft | 482 kts | 26° |
| 2026-05-07 13:05 | 20.91412 | -18.93857 | 28999 ft | 482 kts | 26° |
| 2026-05-07 13:05 | 20.97201 | -18.90322 | 29008 ft | 481 kts | 26° |
| 2026-05-07 13:06 | 21.03013 | -18.86767 | 29009 ft | 481 kts | 26° |
| 2026-05-07 13:06 | 21.08827 | -18.83212 | 29008 ft | 481 kts | 26° |
| 2026-05-07 13:07 | 21.14638 | -18.79661 | 29008 ft | 481 kts | 26° |
| 2026-05-07 13:07 | 21.20447 | -18.76108 | 29006 ft | 480 kts | 26° |
| 2026-05-07 13:08 | 21.26252 | -18.72551 | 29007 ft | 480 kts | 26° |
| 2026-05-07 13:08 | 21.32047 | -18.68993 | 29008 ft | 480 kts | 26° |
| 2026-05-07 13:09 | 21.37842 | -18.65430 | 29007 ft | 480 kts | 26° |
| 2026-05-07 13:09 | 21.43629 | -18.61873 | 28998 ft | 479 kts | 26° |
| 2026-05-07 13:10 | 21.49420 | -18.58318 | 28998 ft | 479 kts | 26° |
| 2026-05-07 13:10 | 21.55205 | -18.54752 | 29000 ft | 479 kts | 26° |
| 2026-05-07 13:11 | 21.60950 | -18.51203 | 28999 ft | 479 kts | 26° |
| 2026-05-07 13:11 | 21.66730 | -18.47634 | 28998 ft | 479 kts | 26° |
| 2026-05-07 13:12 | 21.72505 | -18.44066 | 28999 ft | 479 kts | 26° |
| 2026-05-07 13:12 | 21.78280 | -18.40485 | 28999 ft | 478 kts | 26° |
| 2026-05-07 13:13 | 21.84056 | -18.36917 | 28998 ft | 477 kts | 25° |
| 2026-05-07 13:13 | 21.89787 | -18.33378 | 28998 ft | 478 kts | 26° |
| 2026-05-07 13:14 | 21.95548 | -18.29805 | 29000 ft | 478 kts | 26° |
| 2026-05-07 13:14 | 22.01311 | -18.26225 | 28998 ft | 478 kts | 25° |
| 2026-05-07 13:15 | 22.07073 | -18.22641 | 28998 ft | 478 kts | 26° |
| 2026-05-07 13:15 | 22.12830 | -18.19060 | 28998 ft | 478 kts | 25° |
| 2026-05-07 13:16 | 22.18588 | -18.15480 | 28999 ft | 478 kts | 25° |
| 2026-05-07 13:16 | 22.21469 | -18.13694 | 29116 ft | 478 kts | 25° |
| 2026-05-07 13:16 | 22.24352 | -18.11898 | 29328 ft | 477 kts | 26° |
| 2026-05-07 13:17 | 22.27220 | -18.10105 | 29521 ft | 476 kts | 26° |
| 2026-05-07 13:17 | 22.30087 | -18.08310 | 29725 ft | 476 kts | 25° |
| 2026-05-07 13:17 | 22.32953 | -18.06519 | 29920 ft | 475 kts | 25° |
| 2026-05-07 13:17 | 22.35813 | -18.04733 | 29993 ft | 475 kts | 25° |
| 2026-05-07 13:18 | 22.41527 | -18.01166 | 29998 ft | 474 kts | 25° |
| 2026-05-07 13:18 | 22.47212 | -17.97614 | 29998 ft | 474 kts | 25° |
| 2026-05-07 13:19 | 22.52929 | -17.94043 | 29996 ft | 475 kts | 25° |
| 2026-05-07 13:19 | 22.58647 | -17.90458 | 29998 ft | 475 kts | 25° |
| 2026-05-07 13:20 | 22.64361 | -17.86872 | 29999 ft | 475 kts | 25° |
| 2026-05-07 13:20 | 22.70070 | -17.83281 | 30000 ft | 475 kts | 25° |
| 2026-05-07 13:21 | 22.75789 | -17.79699 | 30017 ft | 475 kts | 25° |
| 2026-05-07 13:21 | 22.81507 | -17.76099 | 30003 ft | 475 kts | 25° |
| 2026-05-07 13:22 | 22.87216 | -17.72487 | 30009 ft | 475 kts | 25° |
| 2026-05-07 13:22 | 22.92934 | -17.68883 | 30014 ft | 475 kts | 25° |
| 2026-05-07 13:23 | 22.98652 | -17.65285 | 30004 ft | 475 kts | 25° |
| 2026-05-07 13:23 | 23.04374 | -17.61685 | 30021 ft | 475 kts | 25° |
| 2026-05-07 13:24 | 23.10093 | -17.58067 | 30001 ft | 476 kts | 25° |
| 2026-05-07 13:24 | 23.15812 | -17.54438 | 30007 ft | 476 kts | 25° |
| 2026-05-07 13:25 | 23.21533 | -17.50814 | 30015 ft | 476 kts | 25° |
| 2026-05-07 13:25 | 23.27219 | -17.47205 | 30002 ft | 476 kts | 25° |
| 2026-05-07 13:26 | 23.32940 | -17.43580 | 30012 ft | 476 kts | 25° |
| 2026-05-07 13:26 | 23.38658 | -17.39946 | 30006 ft | 476 kts | 25° |
| 2026-05-07 13:27 | 23.44381 | -17.36308 | 30003 ft | 476 kts | 25° |
| 2026-05-07 13:27 | 23.50103 | -17.32670 | 30000 ft | 476 kts | 25° |
| 2026-05-07 13:28 | 23.54865 | -17.29644 | 30001 ft | 477 kts | 25° |
| 2026-05-07 13:28 | 23.60593 | -17.26000 | 30008 ft | 477 kts | 25° |
| 2026-05-07 13:29 | 23.66316 | -17.22345 | 30001 ft | 477 kts | 25° |
| 2026-05-07 13:29 | 23.72036 | -17.18674 | 30016 ft | 477 kts | 25° |
| 2026-05-07 13:30 | 23.77770 | -17.15006 | 30003 ft | 478 kts | 25° |
| 2026-05-07 13:30 | 23.83503 | -17.11340 | 30003 ft | 477 kts | 25° |
| 2026-05-07 13:31 | 23.89240 | -17.07668 | 30003 ft | 478 kts | 25° |
| 2026-05-07 13:31 | 23.94941 | -17.04009 | 30001 ft | 478 kts | 25° |
| 2026-05-07 13:32 | 24.00681 | -17.00327 | 30011 ft | 478 kts | 25° |
| 2026-05-07 13:32 | 24.06425 | -16.96631 | 30014 ft | 479 kts | 26° |
| 2026-05-07 13:33 | 24.12172 | -16.92930 | 30006 ft | 479 kts | 26° |
| 2026-05-07 13:33 | 24.17917 | -16.89227 | 30000 ft | 479 kts | 26° |
| 2026-05-07 13:34 | 24.26542 | -16.83663 | 30014 ft | 480 kts | 26° |
| 2026-05-07 13:35 | 24.32289 | -16.79956 | 30007 ft | 480 kts | 26° |
| 2026-05-07 13:35 | 24.38039 | -16.76232 | 30012 ft | 480 kts | 26° |
| 2026-05-07 13:36 | 24.43798 | -16.72507 | 30001 ft | 480 kts | 26° |
| 2026-05-07 13:36 | 24.49555 | -16.68776 | 30004 ft | 481 kts | 26° |
| 2026-05-07 13:37 | 24.55315 | -16.65036 | 30000 ft | 480 kts | 26° |
| 2026-05-07 13:37 | 24.61066 | -16.61296 | 30019 ft | 480 kts | 26° |
| 2026-05-07 13:38 | 24.66821 | -16.57553 | 30020 ft | 481 kts | 26° |
| 2026-05-07 13:38 | 24.72583 | -16.53810 | 30017 ft | 480 kts | 26° |
| 2026-05-07 13:39 | 24.78331 | -16.50059 | 30004 ft | 480 kts | 26° |
| 2026-05-07 13:39 | 24.84080 | -16.46303 | 30004 ft | 480 kts | 26° |
| 2026-05-07 13:40 | 24.89829 | -16.42550 | 30007 ft | 480 kts | 26° |
| 2026-05-07 13:40 | 24.95583 | -16.38793 | 30006 ft | 480 kts | 26° |
| 2026-05-07 13:41 | 25.00874 | -16.34304 | 30024 ft | 490 kts | 43° |
| 2026-05-07 13:41 | 25.05100 | -16.28351 | 30022 ft | 494 kts | 50° |
| 2026-05-07 13:42 | 25.09201 | -16.22268 | 30024 ft | 494 kts | 50° |
| 2026-05-07 13:42 | 25.13305 | -16.16174 | 30015 ft | 494 kts | 50° |
| 2026-05-07 13:43 | 25.17409 | -16.10083 | 30019 ft | 494 kts | 50° |
| 2026-05-07 13:43 | 25.21511 | -16.03989 | 30026 ft | 494 kts | 50° |
| 2026-05-07 13:44 | 25.25601 | -15.97887 | 30017 ft | 494 kts | 50° |
| 2026-05-07 13:44 | 25.29691 | -15.91774 | 30016 ft | 495 kts | 50° |
| 2026-05-07 13:45 | 25.33791 | -15.85662 | 30026 ft | 495 kts | 50° |
| 2026-05-07 13:45 | 25.37878 | -15.79547 | 30016 ft | 494 kts | 50° |
| 2026-05-07 13:46 | 25.41966 | -15.73433 | 30014 ft | 494 kts | 50° |
| 2026-05-07 13:46 | 25.46022 | -15.67350 | 30024 ft | 494 kts | 50° |
| 2026-05-07 13:47 | 25.50097 | -15.61212 | 30022 ft | 494 kts | 50° |
| 2026-05-07 13:47 | 25.54178 | -15.55077 | 30011 ft | 495 kts | 50° |
| 2026-05-07 13:48 | 25.58266 | -15.48951 | 30013 ft | 495 kts | 50° |
| 2026-05-07 13:48 | 25.62344 | -15.42802 | 30019 ft | 495 kts | 50° |
| 2026-05-07 13:49 | 25.66414 | -15.36645 | 30029 ft | 495 kts | 51° |
| 2026-05-07 13:49 | 25.70479 | -15.30492 | 29998 ft | 494 kts | 50° |
| 2026-05-07 13:50 | 25.74550 | -15.24342 | 30024 ft | 495 kts | 50° |
| 2026-05-07 13:50 | 25.78598 | -15.18220 | 30001 ft | 495 kts | 51° |
| 2026-05-07 13:51 | 25.82666 | -15.12050 | 30019 ft | 495 kts | 51° |
| 2026-05-07 13:51 | 25.86724 | -15.05878 | 30007 ft | 495 kts | 51° |
| 2026-05-07 13:52 | 25.90787 | -14.99694 | 30001 ft | 496 kts | 51° |
| 2026-05-07 13:52 | 25.94851 | -14.93504 | 30004 ft | 496 kts | 51° |
| 2026-05-07 13:53 | 25.98912 | -14.87303 | 30015 ft | 496 kts | 51° |
| 2026-05-07 13:53 | 26.02967 | -14.81102 | 30001 ft | 496 kts | 51° |
| 2026-05-07 13:54 | 26.07007 | -14.74937 | 30011 ft | 496 kts | 51° |
| 2026-05-07 13:54 | 26.11071 | -14.68724 | 30000 ft | 496 kts | 51° |
| 2026-05-07 13:55 | 26.15141 | -14.62516 | 30012 ft | 496 kts | 50° |
| 2026-05-07 13:55 | 26.19398 | -14.56461 | 30008 ft | 496 kts | 48° |
| 2026-05-07 13:56 | 26.23765 | -14.50511 | 30000 ft | 496 kts | 48° |
| 2026-05-07 13:56 | 26.28101 | -14.44525 | 30011 ft | 496 kts | 49° |
| 2026-05-07 13:57 | 26.32379 | -14.38501 | 30007 ft | 496 kts | 49° |
| 2026-05-07 13:57 | 26.36662 | -14.32443 | 30002 ft | 497 kts | 49° |
| 2026-05-07 13:58 | 26.40943 | -14.26403 | 30015 ft | 496 kts | 49° |
| 2026-05-07 13:58 | 26.45206 | -14.20398 | 30001 ft | 496 kts | 49° |
| 2026-05-07 13:59 | 26.49490 | -14.14349 | 30008 ft | 497 kts | 49° |
| 2026-05-07 13:59 | 26.53771 | -14.08293 | 30008 ft | 496 kts | 49° |
| 2026-05-07 14:00 | 26.58050 | -14.02228 | 30000 ft | 496 kts | 49° |
| 2026-05-07 14:00 | 26.62327 | -13.96167 | 30009 ft | 497 kts | 49° |